Estación Meteorológica Peña el Pijo (Robertgarden) [ 09/22/18 22:30:48 CEST ]

Fecha Hora Presion(HPa) Temp (°C) Humedad % Rocio (°C) Viento ( m/s) Direccion Lluvia 1Hora(mm) Lluvia 24H(mm) LLuvia Total(mm)
2018-Mar-24 01:01:55 993.200 8.9 74 4.5 2.3 NW     176.12
2018-Mar-24 02:01:42 991.000 8.5 74 4.1         176.12
2018-Mar-24 03:01:38 990.700 7.4 75 3.2 2.5 WNW     176.12
2018-Mar-24 04:01:48 989.600 6.8 79 3.4     0.51 0.51 176.63
2018-Mar-24 05:01:47 988.900 6.8 81 3.8     1.03 1.55 177.67
2018-Mar-24 06:01:46 991.000 3.8 74 -0.4     0.51 2.59 178.71
2018-Mar-24 07:01:38 992.000 3.5 71 -1.3 5.5 WNW   2.59 178.71
2018-Mar-24 08:01:36 992.600 2.5 73 -1.9       2.59 178.71
2018-Mar-24 09:01:22 993.000 3.9 70 -1.1       2.59 178.71
2018-Mar-24 10:01:32 992.900 4.4 65 -1.6     0.51 3.10 179.22
2018-Mar-24 11:01:24 993.500 4.3 62 -2.4       3.10 179.22
2018-Mar-24 12:01:29 993.600 6.4 56 -1.8 2.4 NNW   3.10 179.22
2018-Mar-24 13:01:35 993.900 6.2 57 -1.7 1.8 WNW   3.10 179.22
2018-Mar-24 14:01:56 994.400 7.0 54 -1.7 3.0 N   3.10 179.22
2018-Mar-24 15:02:06 993.800 6.1 57 -1.8       3.10 179.22
2018-Mar-24 16:01:43 994.200 6.4 56 -1.8 1.1 WNW   3.10 179.22
2018-Mar-24 17:02:06 994.500 6.1 56 -2.1       3.10 179.22
2018-Mar-24 18:02:03 994.200 5.8 59 -1.6       3.10 179.22
2018-Mar-24 19:01:50 994.900 5.3 62 -1.4 3.7 N   3.10 179.22
2018-Mar-24 20:01:50 995.300 5.2 64 -1.1       3.10 179.22
2018-Mar-24 21:02:03 996.200 5.5 63 -1.0       3.10 179.22
2018-Mar-24 22:01:39 997.400 5.4 63 -1.1       3.10 179.22
2018-Mar-24 23:02:00 997.300 5.4 63 -1.1       3.10 179.22

Temperatura Máxima:    Temperatura Mínima:
Presión Máxima:997.400 Hpa    Presión Mínima:988.900 Hpa


Volver